sensor_id;sensor_type;location;lat;lon;timestamp;noise_LAeq;noise_LA_min;noise_LA_max;noise_LA01;noise_LA95
71020;Laerm;58902;51.436;5.980;2024-01-30T00:00:00;31.86;30.40;33.62;;
71020;Laerm;58902;51.436;5.980;2024-01-30T00:00:10;32.35;30.66;34.17;;
71020;Laerm;58902;51.436;5.980;2024-01-30T00:00:21;34.02;30.93;37.04;;
71020;Laerm;58902;51.436;5.980;2024-01-30T00:00:31;34.03;32.03;35.91;;
71020;Laerm;58902;51.436;5.980;2024-01-30T00:00:41;33.28;31.66;34.82;;
71020;Laerm;58902;51.436;5.980;2024-01-30T00:00:52;32.43;30.70;34.09;;
71020;Laerm;58902;51.436;5.980;2024-01-30T00:01:02;32.63;31.21;34.19;;
71020;Laerm;58902;51.436;5.980;2024-01-30T00:01:13;32.63;31.09;33.82;;
71020;Laerm;58902;51.436;5.980;2024-01-30T00:01:23;32.08;30.45;33.72;;
71020;Laerm;58902;51.436;5.980;2024-01-30T00:01:33;33.50;31.65;35.03;;
71020;Laerm;58902;51.436;5.980;2024-01-30T00:01:44;33.85;31.67;35.60;;
71020;Laerm;58902;51.436;5.980;2024-01-30T00:01:54;32.60;30.74;35.45;;
71020;Laerm;58902;51.436;5.980;2024-01-30T00:02:04;31.50;30.14;33.43;;
71020;Laerm;58902;51.436;5.980;2024-01-30T00:02:15;31.54;30.01;33.58;;
71020;Laerm;58902;51.436;5.980;2024-01-30T00:02:25;31.06;29.33;33.21;;
71020;Laerm;58902;51.436;5.980;2024-01-30T00:02:36;30.38;29.03;31.77;;
71020;Laerm;58902;51.436;5.980;2024-01-30T00:02:46;30.74;29.25;32.96;;
71020;Laerm;58902;51.436;5.980;2024-01-30T00:02:56;30.59;29.32;34.78;;
71020;Laerm;58902;51.436;5.980;2024-01-30T00:03:07;30.40;28.97;33.83;;
71020;Laerm;58902;51.436;5.980;2024-01-30T00:03:18;30.51;29.31;32.70;;
71020;Laerm;58902;51.436;5.980;2024-01-30T00:03:28;30.59;29.39;31.90;;
71020;Laerm;58902;51.436;5.980;2024-01-30T00:03:40;30.86;29.44;32.53;;
71020;Laerm;58902;51.436;5.980;2024-01-30T00:03:50;30.41;29.03;32.02;;
71020;Laerm;58902;51.436;5.980;2024-01-30T00:04:01;30.43;29.38;32.48;;
71020;Laerm;58902;51.436;5.980;2024-01-30T00:04:12;30.89;29.70;32.29;;
71020;Laerm;58902;51.436;5.980;2024-01-30T00:04:22;31.56;29.92;33.13;;
71020;Laerm;58902;51.436;5.980;2024-01-30T00:04:32;32.29;30.84;34.14;;
71020;Laerm;58902;51.436;5.980;2024-01-30T00:04:43;31.08;29.74;32.83;;
71020;Laerm;58902;51.436;5.980;2024-01-30T00:04:53;31.85;30.13;33.87;;
71020;Laerm;58902;51.436;5.980;2024-01-30T00:05:03;30.94;29.28;33.12;;
71020;Laerm;58902;51.436;5.980;2024-01-30T00:05:14;30.38;28.99;31.78;;
71020;Laerm;58902;51.436;5.980;2024-01-30T00:05:24;30.53;29.02;32.17;;
71020;Laerm;58902;51.436;5.980;2024-01-30T00:05:35;30.52;29.31;31.93;;
71020;Laerm;58902;51.436;5.980;2024-01-30T00:05:45;30.39;28.62;32.26;;
71020;Laerm;58902;51.436;5.980;2024-01-30T00:05:55;30.57;28.83;32.01;;
71020;Laerm;58902;51.436;5.980;2024-01-30T00:06:06;30.38;29.15;32.11;;
71020;Laerm;58902;51.436;5.980;2024-01-30T00:06:19;30.57;29.22;33.70;;
71020;Laerm;58902;51.436;5.980;2024-01-30T00:06:33;30.53;29.24;32.19;;
71020;Laerm;58902;51.436;5.980;2024-01-30T00:06:44;30.49;29.18;31.84;;
71020;Laerm;58902;51.436;5.980;2024-01-30T00:06:54;30.41;29.08;32.03;;
71020;Laerm;58902;51.436;5.980;2024-01-30T00:07:05;30.28;29.10;32.01;;
71020;Laerm;58902;51.436;5.980;2024-01-30T00:07:15;30.40;28.99;31.84;;
71020;Laerm;58902;51.436;5.980;2024-01-30T00:07:26;30.76;29.51;32.37;;
71020;Laerm;58902;51.436;5.980;2024-01-30T00:07:36;30.52;29.41;32.35;;
71020;Laerm;58902;51.436;5.980;2024-01-30T00:07:46;30.44;29.27;31.62;;
71020;Laerm;58902;51.436;5.980;2024-01-30T00:07:56;31.17;29.62;32.85;;
71020;Laerm;58902;51.436;5.980;2024-01-30T00:08:07;31.35;30.09;32.77;;
71020;Laerm;58902;51.436;5.980;2024-01-30T00:08:17;31.62;30.08;33.11;;
71020;Laerm;58902;51.436;5.980;2024-01-30T00:08:28;33.46;30.82;36.73;;
71020;Laerm;58902;51.436;5.980;2024-01-30T00:08:38;33.43;31.94;34.63;;
71020;Laerm;58902;51.436;5.980;2024-01-30T00:08:49;33.11;30.90;35.42;;
71020;Laerm;58902;51.436;5.980;2024-01-30T00:08:59;32.28;30.85;34.01;;
71020;Laerm;58902;51.436;5.980;2024-01-30T00:09:09;32.14;30.55;33.59;;
71020;Laerm;58902;51.436;5.980;2024-01-30T00:09:23;33.64;30.49;38.00;;
71020;Laerm;58902;51.436;5.980;2024-01-30T00:09:34;32.39;30.74;34.29;;
71020;Laerm;58902;51.436;5.980;2024-01-30T00:09:46;32.73;31.28;33.95;;
71020;Laerm;58902;51.436;5.980;2024-01-30T00:09:56;33.16;31.12;34.82;;
71020;Laerm;58902;51.436;5.980;2024-01-30T00:10:07;32.64;30.55;34.67;;
71020;Laerm;58902;51.436;5.980;2024-01-30T00:10:17;32.14;30.93;33.40;;
71020;Laerm;58902;51.436;5.980;2024-01-30T00:10:27;32.15;30.78;33.75;;
71020;Laerm;58902;51.436;5.980;2024-01-30T00:10:38;33.09;31.29;34.16;;
71020;Laerm;58902;51.436;5.980;2024-01-30T00:10:48;33.05;31.71;34.43;;
71020;Laerm;58902;51.436;5.980;2024-01-30T00:10:59;33.19;30.68;38.29;;
71020;Laerm;58902;51.436;5.980;2024-01-30T00:11:09;32.46;29.96;34.18;;
71020;Laerm;58902;51.436;5.980;2024-01-30T00:11:19;33.11;31.65;34.68;;
71020;Laerm;58902;51.436;5.980;2024-01-30T00:11:31;32.79;30.55;34.22;;
71020;Laerm;58902;51.436;5.980;2024-01-30T00:11:41;31.22;29.56;33.31;;
71020;Laerm;58902;51.436;5.980;2024-01-30T00:11:52;31.22;29.88;33.01;;
71020;Laerm;58902;51.436;5.980;2024-01-30T00:12:02;31.09;29.87;32.81;;
71020;Laerm;58902;51.436;5.980;2024-01-30T00:12:12;30.96;29.61;32.62;;
71020;Laerm;58902;51.436;5.980;2024-01-30T00:12:23;30.89;29.58;32.80;;
71020;Laerm;58902;51.436;5.980;2024-01-30T00:12:33;30.73;29.01;32.61;;
71020;Laerm;58902;51.436;5.980;2024-01-30T00:12:43;30.82;29.55;32.83;;
71020;Laerm;58902;51.436;5.980;2024-01-30T00:12:54;30.92;29.32;32.49;;
71020;Laerm;58902;51.436;5.980;2024-01-30T00:13:04;31.01;29.65;32.53;;
71020;Laerm;58902;51.436;5.980;2024-01-30T00:13:15;31.19;29.87;32.86;;
71020;Laerm;58902;51.436;5.980;2024-01-30T00:13:27;30.79;28.99;32.24;;
71020;Laerm;58902;51.436;5.980;2024-01-30T00:13:38;41.35;29.72;45.92;;
71020;Laerm;58902;51.436;5.980;2024-01-30T00:13:48;40.20;32.91;46.41;;
71020;Laerm;58902;51.436;5.980;2024-01-30T00:13:58;36.38;33.09;38.54;;
71020;Laerm;58902;51.436;5.980;2024-01-30T00:14:09;35.39;33.21;37.26;;
71020;Laerm;58902;51.436;5.980;2024-01-30T00:14:19;48.39;33.78;59.66;;
71020;Laerm;58902;51.436;5.980;2024-01-30T00:14:29;77.14;60.87;80.14;;
71020;Laerm;58902;51.436;5.980;2024-01-30T00:14:42;75.92;72.38;80.70;;
71020;Laerm;58902;51.436;5.980;2024-01-30T00:14:55;67.80;44.13;77.77;;
71020;Laerm;58902;51.436;5.980;2024-01-30T00:15:06;44.98;38.02;50.19;;
71020;Laerm;58902;51.436;5.980;2024-01-30T00:15:19;37.55;35.04;41.42;;
71020;Laerm;58902;51.436;5.980;2024-01-30T00:15:30;34.92;32.57;37.49;;
71020;Laerm;58902;51.436;5.980;2024-01-30T00:15:40;34.22;32.28;35.79;;
71020;Laerm;58902;51.436;5.980;2024-01-30T00:15:50;34.12;32.53;35.74;;
71020;Laerm;58902;51.436;5.980;2024-01-30T00:16:00;33.30;30.80;36.57;;
71020;Laerm;58902;51.436;5.980;2024-01-30T00:16:20;33.28;31.67;34.80;;
71020;Laerm;58902;51.436;5.980;2024-01-30T00:16:31;33.03;31.33;34.56;;
71020;Laerm;58902;51.436;5.980;2024-01-30T00:16:42;33.11;31.56;34.39;;
71020;Laerm;58902;51.436;5.980;2024-01-30T00:16:52;32.66;31.35;34.14;;
71020;Laerm;58902;51.436;5.980;2024-01-30T00:17:02;31.60;29.89;34.39;;
71020;Laerm;58902;51.436;5.980;2024-01-30T00:17:13;31.63;30.19;32.77;;
71020;Laerm;58902;51.436;5.980;2024-01-30T00:17:23;31.57;30.07;33.18;;
71020;Laerm;58902;51.436;5.980;2024-01-30T00:17:36;31.34;29.79;32.87;;
71020;Laerm;58902;51.436;5.980;2024-01-30T00:17:47;31.15;29.77;33.01;;
71020;Laerm;58902;51.436;5.980;2024-01-30T00:17:57;32.52;30.46;34.25;;
71020;Laerm;58902;51.436;5.980;2024-01-30T00:18:07;33.70;32.14;35.09;;
71020;Laerm;58902;51.436;5.980;2024-01-30T00:18:18;33.60;32.13;35.66;;
71020;Laerm;58902;51.436;5.980;2024-01-30T00:18:28;31.85;29.99;34.50;;
71020;Laerm;58902;51.436;5.980;2024-01-30T00:18:39;31.49;29.59;33.11;;
71020;Laerm;58902;51.436;5.980;2024-01-30T00:18:52;31.45;30.01;33.68;;
71020;Laerm;58902;51.436;5.980;2024-01-30T00:19:03;30.74;29.21;32.42;;
71020;Laerm;58902;51.436;5.980;2024-01-30T00:19:13;30.50;29.13;31.94;;
71020;Laerm;58902;51.436;5.980;2024-01-30T00:19:24;30.55;29.19;32.32;;
71020;Laerm;58902;51.436;5.980;2024-01-30T00:19:34;30.53;29.22;32.46;;
71020;Laerm;58902;51.436;5.980;2024-01-30T00:19:45;30.52;29.10;32.15;;
71020;Laerm;58902;51.436;5.980;2024-01-30T00:19:55;30.52;29.45;31.94;;
71020;Laerm;58902;51.436;5.980;2024-01-30T00:20:05;30.34;29.23;31.87;;
71020;Laerm;58902;51.436;5.980;2024-01-30T00:20:17;30.36;28.73;31.70;;
71020;Laerm;58902;51.436;5.980;2024-01-30T00:20:28;30.27;28.47;32.15;;
71020;Laerm;58902;51.436;5.980;2024-01-30T00:20:38;30.44;28.97;32.42;;
71020;Laerm;58902;51.436;5.980;2024-01-30T00:20:48;30.71;29.02;32.07;;
71020;Laerm;58902;51.436;5.980;2024-01-30T00:20:59;33.50;29.47;46.72;;
71020;Laerm;58902;51.436;5.980;2024-01-30T00:21:09;43.06;38.65;46.49;;
71020;Laerm;58902;51.436;5.980;2024-01-30T00:21:20;39.52;33.69;45.47;;
71020;Laerm;58902;51.436;5.980;2024-01-30T00:21:30;37.19;34.94;39.68;;
71020;Laerm;58902;51.436;5.980;2024-01-30T00:21:40;40.23;35.76;43.43;;
71020;Laerm;58902;51.436;5.980;2024-01-30T00:21:51;71.13;41.83;80.74;;
71020;Laerm;58902;51.436;5.980;2024-01-30T00:22:01;79.68;75.23;84.95;;
71020;Laerm;58902;51.436;5.980;2024-01-30T00:22:12;78.50;74.50;82.88;;
71020;Laerm;58902;51.436;5.980;2024-01-30T00:22:22;76.65;45.46;83.77;;
71020;Laerm;58902;51.436;5.980;2024-01-30T00:22:32;41.41;35.26;47.13;;
71020;Laerm;58902;51.436;5.980;2024-01-30T00:22:43;33.97;30.75;37.39;;
71020;Laerm;58902;51.436;5.980;2024-01-30T00:22:53;31.25;30.04;32.75;;
71020;Laerm;58902;51.436;5.980;2024-01-30T00:23:03;30.85;29.65;32.43;;
71020;Laerm;58902;51.436;5.980;2024-01-30T00:23:14;30.80;29.53;31.93;;
71020;Laerm;58902;51.436;5.980;2024-01-30T00:23:25;31.10;29.75;33.64;;
71020;Laerm;58902;51.436;5.980;2024-01-30T00:23:35;31.46;30.12;32.91;;
71020;Laerm;58902;51.436;5.980;2024-01-30T00:23:45;32.18;30.73;33.97;;
71020;Laerm;58902;51.436;5.980;2024-01-30T00:23:56;32.28;30.55;33.92;;
71020;Laerm;58902;51.436;5.980;2024-01-30T00:24:06;32.72;30.18;39.54;;
71020;Laerm;58902;51.436;5.980;2024-01-30T00:24:17;32.23;30.49;38.53;;
71020;Laerm;58902;51.436;5.980;2024-01-30T00:24:27;32.68;31.06;35.74;;
71020;Laerm;58902;51.436;5.980;2024-01-30T00:24:37;32.59;30.57;36.21;;
71020;Laerm;58902;51.436;5.980;2024-01-30T00:24:48;33.94;31.41;36.46;;
71020;Laerm;58902;51.436;5.980;2024-01-30T00:24:58;33.28;30.95;35.53;;
71020;Laerm;58902;51.436;5.980;2024-01-30T00:25:08;32.45;31.12;34.07;;
71020;Laerm;58902;51.436;5.980;2024-01-30T00:25:19;33.22;30.96;38.02;;
71020;Laerm;58902;51.436;5.980;2024-01-30T00:25:29;34.15;32.31;35.99;;
71020;Laerm;58902;51.436;5.980;2024-01-30T00:25:39;33.84;31.56;35.65;;
71020;Laerm;58902;51.436;5.980;2024-01-30T00:25:50;33.35;31.88;34.58;;
71020;Laerm;58902;51.436;5.980;2024-01-30T00:26:00;33.31;31.31;34.46;;
71020;Laerm;58902;51.436;5.980;2024-01-30T00:26:11;32.83;31.21;34.82;;
71020;Laerm;58902;51.436;5.980;2024-01-30T00:26:21;31.83;30.26;33.35;;
71020;Laerm;58902;51.436;5.980;2024-01-30T00:26:32;31.71;30.69;32.72;;
71020;Laerm;58902;51.436;5.980;2024-01-30T00:26:42;31.90;30.34;34.04;;
71020;Laerm;58902;51.436;5.980;2024-01-30T00:26:52;31.99;30.59;33.61;;
71020;Laerm;58902;51.436;5.980;2024-01-30T00:27:03;32.03;30.13;33.52;;
71020;Laerm;58902;51.436;5.980;2024-01-30T00:27:13;31.90;30.46;33.77;;
71020;Laerm;58902;51.436;5.980;2024-01-30T00:27:23;31.92;30.63;33.18;;
71020;Laerm;58902;51.436;5.980;2024-01-30T00:27:34;31.70;30.04;33.41;;
71020;Laerm;58902;51.436;5.980;2024-01-30T00:27:44;31.35;29.52;32.80;;
71020;Laerm;58902;51.436;5.980;2024-01-30T00:27:54;31.34;29.91;34.15;;
71020;Laerm;58902;51.436;5.980;2024-01-30T00:28:05;31.62;29.68;33.19;;
71020;Laerm;58902;51.436;5.980;2024-01-30T00:28:15;31.80;30.60;33.07;;
71020;Laerm;58902;51.436;5.980;2024-01-30T00:28:26;32.46;30.92;34.89;;
71020;Laerm;58902;51.436;5.980;2024-01-30T00:28:36;33.71;32.44;34.89;;
71020;Laerm;58902;51.436;5.980;2024-01-30T00:28:46;33.52;32.17;35.04;;
71020;Laerm;58902;51.436;5.980;2024-01-30T00:28:57;33.60;31.04;37.74;;
71020;Laerm;58902;51.436;5.980;2024-01-30T00:29:07;31.74;30.38;33.07;;
71020;Laerm;58902;51.436;5.980;2024-01-30T00:29:17;31.66;30.35;33.20;;
71020;Laerm;58902;51.436;5.980;2024-01-30T00:29:29;31.54;29.88;33.03;;
71020;Laerm;58902;51.436;5.980;2024-01-30T00:29:43;32.33;30.72;33.74;;
71020;Laerm;58902;51.436;5.980;2024-01-30T00:29:54;32.06;30.26;33.56;;
71020;Laerm;58902;51.436;5.980;2024-01-30T00:30:04;31.98;30.44;33.65;;
71020;Laerm;58902;51.436;5.980;2024-01-30T00:30:15;34.10;30.27;36.09;;
71020;Laerm;58902;51.436;5.980;2024-01-30T00:30:25;35.00;32.88;37.69;;
71020;Laerm;58902;51.436;5.980;2024-01-30T00:30:36;34.37;32.55;36.95;;
71020;Laerm;58902;51.436;5.980;2024-01-30T00:30:46;32.77;30.23;35.43;;
71020;Laerm;58902;51.436;5.980;2024-01-30T00:30:56;31.84;30.21;33.35;;
71020;Laerm;58902;51.436;5.980;2024-01-30T00:31:07;31.96;30.50;33.33;;
71020;Laerm;58902;51.436;5.980;2024-01-30T00:31:17;32.49;30.35;34.39;;
71020;Laerm;58902;51.436;5.980;2024-01-30T00:31:27;34.24;32.35;36.22;;
71020;Laerm;58902;51.436;5.980;2024-01-30T00:31:38;34.90;32.57;37.73;;
71020;Laerm;58902;51.436;5.980;2024-01-30T00:31:48;33.09;31.64;34.82;;
71020;Laerm;58902;51.436;5.980;2024-01-30T00:31:59;32.47;31.16;34.46;;
71020;Laerm;58902;51.436;5.980;2024-01-30T00:32:09;32.14;30.94;33.86;;
71020;Laerm;58902;51.436;5.980;2024-01-30T00:32:19;33.28;30.89;34.68;;
71020;Laerm;58902;51.436;5.980;2024-01-30T00:32:30;33.40;32.30;34.75;;
71020;Laerm;58902;51.436;5.980;2024-01-30T00:32:40;32.29;30.09;33.78;;
71020;Laerm;58902;51.436;5.980;2024-01-30T00:32:50;31.89;29.98;34.93;;
71020;Laerm;58902;51.436;5.980;2024-01-30T00:33:01;31.09;29.52;33.78;;
71020;Laerm;58902;51.436;5.980;2024-01-30T00:33:11;30.64;29.27;31.64;;
71020;Laerm;58902;51.436;5.980;2024-01-30T00:33:21;30.62;29.45;31.61;;
71020;Laerm;58902;51.436;5.980;2024-01-30T00:33:32;30.66;29.22;32.26;;
71020;Laerm;58902;51.436;5.980;2024-01-30T00:33:42;30.69;29.25;31.89;;
71020;Laerm;58902;51.436;5.980;2024-01-30T00:33:53;30.59;29.35;32.21;;
71020;Laerm;58902;51.436;5.980;2024-01-30T00:34:03;30.71;29.30;34.06;;
71020;Laerm;58902;51.436;5.980;2024-01-30T00:34:13;31.05;29.69;34.73;;
71020;Laerm;58902;51.436;5.980;2024-01-30T00:34:23;31.10;29.74;32.50;;
71020;Laerm;58902;51.436;5.980;2024-01-30T00:34:34;30.89;29.33;32.95;;
71020;Laerm;58902;51.436;5.980;2024-01-30T00:34:44;31.00;29.45;34.48;;
71020;Laerm;58902;51.436;5.980;2024-01-30T00:34:55;30.80;29.46;32.81;;
71020;Laerm;58902;51.436;5.980;2024-01-30T00:35:05;38.51;29.16;47.25;;
71020;Laerm;58902;51.436;5.980;2024-01-30T00:35:16;43.33;38.12;47.17;;
71020;Laerm;58902;51.436;5.980;2024-01-30T00:35:26;36.27;30.90;45.19;;
71020;Laerm;58902;51.436;5.980;2024-01-30T00:35:37;35.08;32.43;37.10;;
71020;Laerm;58902;51.436;5.980;2024-01-30T00:35:47;36.07;32.98;39.26;;
71020;Laerm;58902;51.436;5.980;2024-01-30T00:35:57;71.50;36.65;80.77;;
71020;Laerm;58902;51.436;5.980;2024-01-30T00:36:08;73.33;69.35;77.44;;
71020;Laerm;58902;51.436;5.980;2024-01-30T00:36:19;72.82;50.70;78.96;;
71020;Laerm;58902;51.436;5.980;2024-01-30T00:36:29;47.61;43.83;51.78;;
71020;Laerm;58902;51.436;5.980;2024-01-30T00:36:40;42.89;36.76;48.45;;
71020;Laerm;58902;51.436;5.980;2024-01-30T00:36:50;36.52;33.58;42.67;;
71020;Laerm;58902;51.436;5.980;2024-01-30T00:37:01;34.99;33.29;37.42;;
71020;Laerm;58902;51.436;5.980;2024-01-30T00:37:11;33.33;31.15;36.03;;
71020;Laerm;58902;51.436;5.980;2024-01-30T00:37:22;32.25;30.02;33.94;;
71020;Laerm;58902;51.436;5.980;2024-01-30T00:37:33;31.35;30.00;33.45;;
71020;Laerm;58902;51.436;5.980;2024-01-30T00:37:43;31.22;29.72;32.94;;
71020;Laerm;58902;51.436;5.980;2024-01-30T00:37:54;30.82;29.17;32.00;;
71020;Laerm;58902;51.436;5.980;2024-01-30T00:38:04;30.61;28.85;32.27;;
71020;Laerm;58902;51.436;5.980;2024-01-30T00:38:16;30.33;29.07;32.97;;
71020;Laerm;58902;51.436;5.980;2024-01-30T00:38:27;30.27;29.17;31.92;;
71020;Laerm;58902;51.436;5.980;2024-01-30T00:38:38;30.60;29.28;32.38;;
71020;Laerm;58902;51.436;5.980;2024-01-30T00:38:48;30.94;29.40;32.98;;
71020;Laerm;58902;51.436;5.980;2024-01-30T00:38:58;30.92;29.51;32.66;;
71020;Laerm;58902;51.436;5.980;2024-01-30T00:39:09;30.86;29.67;33.57;;
71020;Laerm;58902;51.436;5.980;2024-01-30T00:39:19;31.07;29.58;33.59;;
71020;Laerm;58902;51.436;5.980;2024-01-30T00:39:30;30.62;29.20;32.32;;
71020;Laerm;58902;51.436;5.980;2024-01-30T00:39:41;30.65;29.22;33.60;;
71020;Laerm;58902;51.436;5.980;2024-01-30T00:39:52;30.49;29.22;31.75;;
71020;Laerm;58902;51.436;5.980;2024-01-30T00:40:02;30.33;29.06;31.97;;
71020;Laerm;58902;51.436;5.980;2024-01-30T00:40:13;30.45;29.26;32.64;;
71020;Laerm;58902;51.436;5.980;2024-01-30T00:40:25;30.40;29.08;32.36;;
71020;Laerm;58902;51.436;5.980;2024-01-30T00:40:36;30.56;29.16;32.36;;
71020;Laerm;58902;51.436;5.980;2024-01-30T00:40:46;30.50;29.14;32.14;;
71020;Laerm;58902;51.436;5.980;2024-01-30T00:40:56;30.50;29.33;32.83;;
71020;Laerm;58902;51.436;5.980;2024-01-30T00:41:10;30.70;29.23;32.03;;
71020;Laerm;58902;51.436;5.980;2024-01-30T00:41:20;30.95;29.62;32.47;;
71020;Laerm;58902;51.436;5.980;2024-01-30T00:41:30;30.93;29.31;32.85;;
71020;Laerm;58902;51.436;5.980;2024-01-30T00:41:41;30.56;29.38;32.36;;
71020;Laerm;58902;51.436;5.980;2024-01-30T00:41:51;30.49;29.29;31.77;;
71020;Laerm;58902;51.436;5.980;2024-01-30T00:42:01;30.79;29.17;32.38;;
71020;Laerm;58902;51.436;5.980;2024-01-30T00:42:12;31.45;30.39;33.51;;
71020;Laerm;58902;51.436;5.980;2024-01-30T00:42:22;31.41;29.83;32.93;;
71020;Laerm;58902;51.436;5.980;2024-01-30T00:42:34;31.08;29.50;32.82;;
71020;Laerm;58902;51.436;5.980;2024-01-30T00:42:44;30.42;29.22;32.97;;
71020;Laerm;58902;51.436;5.980;2024-01-30T00:42:54;30.49;29.19;32.07;;
71020;Laerm;58902;51.436;5.980;2024-01-30T00:43:05;30.51;29.28;31.92;;
71020;Laerm;58902;51.436;5.980;2024-01-30T00:43:15;30.64;29.32;32.41;;
71020;Laerm;58902;51.436;5.980;2024-01-30T00:43:26;31.23;29.82;32.85;;
71020;Laerm;58902;51.436;5.980;2024-01-30T00:43:36;31.42;29.66;33.14;;
71020;Laerm;58902;51.436;5.980;2024-01-30T00:43:47;31.23;29.62;33.40;;
71020;Laerm;58902;51.436;5.980;2024-01-30T00:43:57;29.80;28.65;31.47;;
71020;Laerm;58902;51.436;5.980;2024-01-30T00:44:07;29.74;28.58;31.07;;
71020;Laerm;58902;51.436;5.980;2024-01-30T00:44:18;29.90;28.79;31.37;;
71020;Laerm;58902;51.436;5.980;2024-01-30T00:44:28;29.86;28.80;30.99;;
71020;Laerm;58902;51.436;5.980;2024-01-30T00:44:39;30.06;28.81;32.39;;
71020;Laerm;58902;51.436;5.980;2024-01-30T00:44:49;30.07;28.68;31.57;;
71020;Laerm;58902;51.436;5.980;2024-01-30T00:44:59;30.07;28.75;31.65;;
71020;Laerm;58902;51.436;5.980;2024-01-30T00:45:16;30.07;28.74;31.53;;
71020;Laerm;58902;51.436;5.980;2024-01-30T00:45:26;30.22;28.93;31.59;;
71020;Laerm;58902;51.436;5.980;2024-01-30T00:45:37;30.55;29.13;32.21;;
71020;Laerm;58902;51.436;5.980;2024-01-30T00:45:47;32.60;29.69;36.37;;
71020;Laerm;58902;51.436;5.980;2024-01-30T00:45:58;32.34;30.99;33.43;;
71020;Laerm;58902;51.436;5.980;2024-01-30T00:46:09;33.03;30.61;34.22;;
71020;Laerm;58902;51.436;5.980;2024-01-30T00:46:19;32.73;30.49;34.45;;
71020;Laerm;58902;51.436;5.980;2024-01-30T00:46:29;32.38;30.32;34.82;;
71020;Laerm;58902;51.436;5.980;2024-01-30T00:46:40;32.92;30.23;39.32;;
71020;Laerm;58902;51.436;5.980;2024-01-30T00:46:50;33.16;31.73;35.02;;
71020;Laerm;58902;51.436;5.980;2024-01-30T00:47:00;33.09;31.71;34.25;;
71020;Laerm;58902;51.436;5.980;2024-01-30T00:47:11;34.19;30.99;39.63;;
71020;Laerm;58902;51.436;5.980;2024-01-30T00:47:21;31.98;30.35;33.50;;
71020;Laerm;58902;51.436;5.980;2024-01-30T00:47:31;31.76;29.64;33.69;;
71020;Laerm;58902;51.436;5.980;2024-01-30T00:47:43;31.56;29.90;33.50;;
71020;Laerm;58902;51.436;5.980;2024-01-30T00:47:53;31.44;30.28;32.79;;
71020;Laerm;58902;51.436;5.980;2024-01-30T00:48:04;36.89;30.05;45.72;;
71020;Laerm;58902;51.436;5.980;2024-01-30T00:48:14;44.34;38.02;48.31;;
71020;Laerm;58902;51.436;5.980;2024-01-30T00:48:24;36.87;32.18;45.96;;
71020;Laerm;58902;51.436;5.980;2024-01-30T00:48:35;33.99;31.60;35.78;;
71020;Laerm;58902;51.436;5.980;2024-01-30T00:48:45;35.01;32.79;36.90;;
71020;Laerm;58902;51.436;5.980;2024-01-30T00:48:56;36.27;33.65;39.59;;
71020;Laerm;58902;51.436;5.980;2024-01-30T00:49:06;69.43;36.97;79.87;;
71020;Laerm;58902;51.436;5.980;2024-01-30T00:49:16;75.26;70.02;81.78;;
71020;Laerm;58902;51.436;5.980;2024-01-30T00:49:27;74.13;56.39;81.89;;
71020;Laerm;58902;51.436;5.980;2024-01-30T00:49:37;51.47;45.18;58.31;;
71020;Laerm;58902;51.436;5.980;2024-01-30T00:49:47;45.89;39.33;50.56;;
71020;Laerm;58902;51.436;5.980;2024-01-30T00:49:58;39.95;36.08;45.94;;
71020;Laerm;58902;51.436;5.980;2024-01-30T00:50:08;37.18;34.64;41.79;;
71020;Laerm;58902;51.436;5.980;2024-01-30T00:50:18;36.50;34.39;38.92;;
71020;Laerm;58902;51.436;5.980;2024-01-30T00:50:29;35.74;33.63;39.97;;
71020;Laerm;58902;51.436;5.980;2024-01-30T00:50:39;34.51;31.82;37.94;;
71020;Laerm;58902;51.436;5.980;2024-01-30T00:50:49;31.93;29.61;33.79;;
71020;Laerm;58902;51.436;5.980;2024-01-30T00:51:00;31.48;30.26;34.13;;
71020;Laerm;58902;51.436;5.980;2024-01-30T00:51:10;31.34;29.76;33.08;;
71020;Laerm;58902;51.436;5.980;2024-01-30T00:51:20;31.50;30.07;32.75;;
71020;Laerm;58902;51.436;5.980;2024-01-30T00:51:31;31.54;29.90;33.24;;
71020;Laerm;58902;51.436;5.980;2024-01-30T00:51:41;31.42;29.62;33.13;;
71020;Laerm;58902;51.436;5.980;2024-01-30T00:51:51;31.00;29.63;32.48;;
71020;Laerm;58902;51.436;5.980;2024-01-30T00:52:02;30.74;29.53;32.17;;
71020;Laerm;58902;51.436;5.980;2024-01-30T00:52:12;41.35;29.30;47.99;;
71020;Laerm;58902;51.436;5.980;2024-01-30T00:52:22;41.92;32.07;46.44;;
71020;Laerm;58902;51.436;5.980;2024-01-30T00:52:33;35.99;32.42;38.26;;
71020;Laerm;58902;51.436;5.980;2024-01-30T00:52:43;35.53;31.73;37.67;;
71020;Laerm;58902;51.436;5.980;2024-01-30T00:52:55;35.12;31.32;38.26;;
71020;Laerm;58902;51.436;5.980;2024-01-30T00:53:05;41.42;32.94;53.91;;
71020;Laerm;58902;51.436;5.980;2024-01-30T00:53:16;73.10;53.40;79.45;;
71020;Laerm;58902;51.436;5.980;2024-01-30T00:53:26;73.73;67.62;80.29;;
71020;Laerm;58902;51.436;5.980;2024-01-30T00:53:36;69.38;47.12;77.72;;
71020;Laerm;58902;51.436;5.980;2024-01-30T00:53:47;45.18;38.99;49.41;;
71020;Laerm;58902;51.436;5.980;2024-01-30T00:53:57;38.74;35.33;42.18;;
71020;Laerm;58902;51.436;5.980;2024-01-30T00:54:07;34.81;31.71;38.36;;
71020;Laerm;58902;51.436;5.980;2024-01-30T00:54:18;32.96;31.43;34.63;;
71020;Laerm;58902;51.436;5.980;2024-01-30T00:54:28;31.84;30.17;34.19;;
71020;Laerm;58902;51.436;5.980;2024-01-30T00:54:39;31.10;29.45;32.85;;
71020;Laerm;58902;51.436;5.980;2024-01-30T00:54:49;30.40;29.20;31.71;;
71020;Laerm;58902;51.436;5.980;2024-01-30T00:55:00;30.51;29.06;32.83;;
71020;Laerm;58902;51.436;5.980;2024-01-30T00:55:10;30.68;29.25;32.28;;
71020;Laerm;58902;51.436;5.980;2024-01-30T00:55:21;31.65;30.15;32.87;;
71020;Laerm;58902;51.436;5.980;2024-01-30T00:55:31;31.21;29.56;32.68;;
71020;Laerm;58902;51.436;5.980;2024-01-30T00:55:42;32.08;29.70;34.09;;
71020;Laerm;58902;51.436;5.980;2024-01-30T00:55:52;32.92;30.34;35.78;;
71020;Laerm;58902;51.436;5.980;2024-01-30T00:56:02;32.48;30.47;35.00;;
71020;Laerm;58902;51.436;5.980;2024-01-30T00:56:13;33.80;30.67;35.32;;
71020;Laerm;58902;51.436;5.980;2024-01-30T00:56:23;34.17;31.89;35.85;;
71020;Laerm;58902;51.436;5.980;2024-01-30T00:56:34;32.86;29.74;34.66;;
71020;Laerm;58902;51.436;5.980;2024-01-30T00:56:45;31.65;30.57;32.92;;
71020;Laerm;58902;51.436;5.980;2024-01-30T00:56:56;31.02;29.52;32.43;;
71020;Laerm;58902;51.436;5.980;2024-01-30T00:57:07;31.24;29.66;35.81;;
71020;Laerm;58902;51.436;5.980;2024-01-30T00:57:17;34.03;32.82;35.38;;
71020;Laerm;58902;51.436;5.980;2024-01-30T00:57:28;34.15;33.01;35.14;;
71020;Laerm;58902;51.436;5.980;2024-01-30T00:57:38;33.22;29.94;35.32;;
71020;Laerm;58902;51.436;5.980;2024-01-30T00:57:48;32.46;30.04;36.39;;
71020;Laerm;58902;51.436;5.980;2024-01-30T00:57:59;31.59;29.85;36.36;;
71020;Laerm;58902;51.436;5.980;2024-01-30T00:58:09;30.85;29.63;32.37;;
71020;Laerm;58902;51.436;5.980;2024-01-30T00:58:19;31.47;29.87;32.92;;
71020;Laerm;58902;51.436;5.980;2024-01-30T00:58:30;31.49;30.02;33.01;;
71020;Laerm;58902;51.436;5.980;2024-01-30T00:58:40;32.41;29.95;36.97;;
71020;Laerm;58902;51.436;5.980;2024-01-30T00:58:50;32.33;29.46;38.84;;
71020;Laerm;58902;51.436;5.980;2024-01-30T00:59:01;30.93;29.22;33.06;;
71020;Laerm;58902;51.436;5.980;2024-01-30T00:59:11;30.46;29.23;32.08;;